sensor_id;sensor_type;location;lat;lon;timestamp;P1;durP1;ratioP1;P2;durP2;ratioP2
15151;SDS011;7676;50.900;6.234;2022-07-29T00:01:55;3.30;;;1.33;;
15151;SDS011;7676;50.900;6.234;2022-07-29T00:06:58;4.83;;;1.50;;
15151;SDS011;7676;50.900;6.234;2022-07-29T00:12:00;2.60;;;1.50;;
15151;SDS011;7676;50.900;6.234;2022-07-29T00:17:03;3.00;;;1.50;;
15151;SDS011;7676;50.900;6.234;2022-07-29T00:22:06;2.07;;;1.20;;
15151;SDS011;7676;50.900;6.234;2022-07-29T00:27:09;3.97;;;1.40;;
15151;SDS011;7676;50.900;6.234;2022-07-29T00:32:11;2.30;;;1.43;;
15151;SDS011;7676;50.900;6.234;2022-07-29T00:37:13;3.47;;;1.50;;
15151;SDS011;7676;50.900;6.234;2022-07-29T00:42:16;5.17;;;1.60;;
15151;SDS011;7676;50.900;6.234;2022-07-29T00:47:19;3.63;;;1.30;;
15151;SDS011;7676;50.900;6.234;2022-07-29T00:52:21;3.47;;;1.53;;
15151;SDS011;7676;50.900;6.234;2022-07-29T00:57:23;3.27;;;1.43;;
15151;SDS011;7676;50.900;6.234;2022-07-29T01:02:26;4.30;;;1.70;;
15151;SDS011;7676;50.900;6.234;2022-07-29T01:07:29;2.83;;;1.20;;
15151;SDS011;7676;50.900;6.234;2022-07-29T01:12:34;2.97;;;1.40;;
15151;SDS011;7676;50.900;6.234;2022-07-29T01:34:01;3.60;;;1.80;;
15151;SDS011;7676;50.900;6.234;2022-07-29T01:39:11;2.83;;;1.60;;
15151;SDS011;7676;50.900;6.234;2022-07-29T01:44:22;2.40;;;1.90;;
15151;SDS011;7676;50.900;6.234;2022-07-29T01:49:35;2.87;;;1.80;;
15151;SDS011;7676;50.900;6.234;2022-07-29T01:54:55;6.67;;;2.37;;
15151;SDS011;7676;50.900;6.234;2022-07-29T01:59:59;6.43;;;2.47;;
15151;SDS011;7676;50.900;6.234;2022-07-29T02:05:14;3.83;;;2.03;;
15151;SDS011;7676;50.900;6.234;2022-07-29T02:10:20;4.90;;;1.93;;
15151;SDS011;7676;50.900;6.234;2022-07-29T02:15:28;4.07;;;1.80;;
15151;SDS011;7676;50.900;6.234;2022-07-29T02:20:32;6.20;;;2.23;;
15151;SDS011;7676;50.900;6.234;2022-07-29T02:25:36;3.20;;;1.83;;
15151;SDS011;7676;50.900;6.234;2022-07-29T02:30:40;3.97;;;2.13;;
15151;SDS011;7676;50.900;6.234;2022-07-29T02:35:44;3.97;;;2.10;;
15151;SDS011;7676;50.900;6.234;2022-07-29T02:40:48;3.00;;;1.67;;
15151;SDS011;7676;50.900;6.234;2022-07-29T02:45:52;4.73;;;2.10;;
15151;SDS011;7676;50.900;6.234;2022-07-29T02:50:58;3.03;;;2.10;;
15151;SDS011;7676;50.900;6.234;2022-07-29T02:56:08;2.10;;;1.63;;
15151;SDS011;7676;50.900;6.234;2022-07-29T03:01:15;4.57;;;1.73;;
15151;SDS011;7676;50.900;6.234;2022-07-29T03:06:23;8.93;;;1.80;;
15151;SDS011;7676;50.900;6.234;2022-07-29T03:11:40;2.60;;;1.63;;
15151;SDS011;7676;50.900;6.234;2022-07-29T03:16:51;4.40;;;2.27;;
15151;SDS011;7676;50.900;6.234;2022-07-29T03:21:58;4.07;;;1.73;;
15151;SDS011;7676;50.900;6.234;2022-07-29T03:27:02;4.10;;;1.80;;
15151;SDS011;7676;50.900;6.234;2022-07-29T03:32:06;3.73;;;1.70;;
15151;SDS011;7676;50.900;6.234;2022-07-29T03:37:09;3.47;;;2.17;;
15151;SDS011;7676;50.900;6.234;2022-07-29T03:42:13;4.23;;;1.80;;
15151;SDS011;7676;50.900;6.234;2022-07-29T03:47:18;3.17;;;1.83;;
15151;SDS011;7676;50.900;6.234;2022-07-29T03:52:44;3.90;;;2.10;;
15151;SDS011;7676;50.900;6.234;2022-07-29T03:57:48;3.80;;;2.20;;
15151;SDS011;7676;50.900;6.234;2022-07-29T04:02:52;3.37;;;1.97;;
15151;SDS011;7676;50.900;6.234;2022-07-29T04:07:55;3.63;;;1.80;;
15151;SDS011;7676;50.900;6.234;2022-07-29T04:12:59;3.33;;;1.97;;
15151;SDS011;7676;50.900;6.234;2022-07-29T04:18:02;3.50;;;2.20;;
15151;SDS011;7676;50.900;6.234;2022-07-29T04:23:04;4.60;;;2.43;;
15151;SDS011;7676;50.900;6.234;2022-07-29T04:28:07;3.47;;;2.43;;
15151;SDS011;7676;50.900;6.234;2022-07-29T04:33:10;2.70;;;2.20;;
15151;SDS011;7676;50.900;6.234;2022-07-29T04:38:12;4.30;;;2.00;;
15151;SDS011;7676;50.900;6.234;2022-07-29T04:43:17;3.53;;;2.00;;
15151;SDS011;7676;50.900;6.234;2022-07-29T04:48:24;3.90;;;2.03;;
15151;SDS011;7676;50.900;6.234;2022-07-29T04:53:29;2.87;;;2.10;;
15151;SDS011;7676;50.900;6.234;2022-07-29T04:58:33;4.73;;;2.23;;
15151;SDS011;7676;50.900;6.234;2022-07-29T05:03:37;2.40;;;1.83;;
15151;SDS011;7676;50.900;6.234;2022-07-29T05:08:39;4.33;;;2.20;;
15151;SDS011;7676;50.900;6.234;2022-07-29T05:13:43;5.60;;;2.10;;
15151;SDS011;7676;50.900;6.234;2022-07-29T05:18:47;4.07;;;2.43;;
15151;SDS011;7676;50.900;6.234;2022-07-29T05:23:49;4.73;;;2.10;;
15151;SDS011;7676;50.900;6.234;2022-07-29T05:28:52;3.07;;;2.07;;
15151;SDS011;7676;50.900;6.234;2022-07-29T05:33:55;2.67;;;1.77;;
15151;SDS011;7676;50.900;6.234;2022-07-29T05:38:57;7.33;;;1.90;;
15151;SDS011;7676;50.900;6.234;2022-07-29T05:44:00;3.87;;;2.50;;
15151;SDS011;7676;50.900;6.234;2022-07-29T05:49:02;5.83;;;2.37;;
15151;SDS011;7676;50.900;6.234;2022-07-29T05:54:04;3.60;;;2.17;;
15151;SDS011;7676;50.900;6.234;2022-07-29T05:59:07;3.47;;;2.60;;
15151;SDS011;7676;50.900;6.234;2022-07-29T06:04:19;4.53;;;2.57;;
15151;SDS011;7676;50.900;6.234;2022-07-29T06:09:22;5.87;;;2.40;;
15151;SDS011;7676;50.900;6.234;2022-07-29T06:14:25;4.17;;;2.23;;
15151;SDS011;7676;50.900;6.234;2022-07-29T06:19:28;4.80;;;2.33;;
15151;SDS011;7676;50.900;6.234;2022-07-29T06:24:30;3.43;;;2.50;;
15151;SDS011;7676;50.900;6.234;2022-07-29T06:29:33;4.83;;;2.90;;
15151;SDS011;7676;50.900;6.234;2022-07-29T06:34:35;4.90;;;2.60;;
15151;SDS011;7676;50.900;6.234;2022-07-29T06:39:38;4.63;;;2.80;;
15151;SDS011;7676;50.900;6.234;2022-07-29T06:44:40;5.63;;;2.90;;
15151;SDS011;7676;50.900;6.234;2022-07-29T06:49:43;5.67;;;2.80;;
15151;SDS011;7676;50.900;6.234;2022-07-29T06:54:45;5.73;;;3.17;;
15151;SDS011;7676;50.900;6.234;2022-07-29T06:59:49;5.90;;;3.13;;
15151;SDS011;7676;50.900;6.234;2022-07-29T07:04:51;5.10;;;2.80;;
15151;SDS011;7676;50.900;6.234;2022-07-29T07:09:54;5.60;;;3.03;;
15151;SDS011;7676;50.900;6.234;2022-07-29T07:14:56;5.70;;;2.97;;
15151;SDS011;7676;50.900;6.234;2022-07-29T07:19:58;5.60;;;3.00;;
15151;SDS011;7676;50.900;6.234;2022-07-29T07:25:01;4.83;;;2.70;;
15151;SDS011;7676;50.900;6.234;2022-07-29T07:30:06;6.13;;;3.03;;
15151;SDS011;7676;50.900;6.234;2022-07-29T07:35:10;8.67;;;3.60;;
15151;SDS011;7676;50.900;6.234;2022-07-29T07:40:12;5.73;;;2.60;;
15151;SDS011;7676;50.900;6.234;2022-07-29T07:45:19;6.37;;;2.97;;
15151;SDS011;7676;50.900;6.234;2022-07-29T07:50:22;6.40;;;3.27;;
15151;SDS011;7676;50.900;6.234;2022-07-29T07:55:24;6.80;;;3.17;;
15151;SDS011;7676;50.900;6.234;2022-07-29T08:00:27;3.87;;;2.40;;
15151;SDS011;7676;50.900;6.234;2022-07-29T08:05:30;8.07;;;3.73;;
15151;SDS011;7676;50.900;6.234;2022-07-29T08:10:32;5.63;;;3.27;;
15151;SDS011;7676;50.900;6.234;2022-07-29T08:15:54;7.50;;;3.63;;
15151;SDS011;7676;50.900;6.234;2022-07-29T08:20:59;5.80;;;2.83;;
15151;SDS011;7676;50.900;6.234;2022-07-29T08:26:02;4.50;;;2.40;;
15151;SDS011;7676;50.900;6.234;2022-07-29T08:31:05;4.63;;;3.03;;
15151;SDS011;7676;50.900;6.234;2022-07-29T08:36:07;4.67;;;3.37;;
15151;SDS011;7676;50.900;6.234;2022-07-29T08:41:10;8.87;;;3.80;;
15151;SDS011;7676;50.900;6.234;2022-07-29T08:46:12;4.67;;;3.50;;
15151;SDS011;7676;50.900;6.234;2022-07-29T08:51:19;5.47;;;3.37;;
15151;SDS011;7676;50.900;6.234;2022-07-29T08:56:22;6.80;;;3.90;;
15151;SDS011;7676;50.900;6.234;2022-07-29T09:01:27;5.27;;;3.97;;
15151;SDS011;7676;50.900;6.234;2022-07-29T09:06:42;3.97;;;3.40;;
15151;SDS011;7676;50.900;6.234;2022-07-29T09:11:47;6.80;;;4.17;;
15151;SDS011;7676;50.900;6.234;2022-07-29T09:16:54;5.80;;;3.90;;
15151;SDS011;7676;50.900;6.234;2022-07-29T09:21:59;7.10;;;4.07;;
15151;SDS011;7676;50.900;6.234;2022-07-29T09:27:07;5.70;;;3.40;;
15151;SDS011;7676;50.900;6.234;2022-07-29T09:32:11;4.90;;;3.13;;
15151;SDS011;7676;50.900;6.234;2022-07-29T09:37:25;5.97;;;3.33;;
15151;SDS011;7676;50.900;6.234;2022-07-29T09:42:29;4.80;;;3.00;;
15151;SDS011;7676;50.900;6.234;2022-07-29T09:47:41;5.33;;;2.83;;
15151;SDS011;7676;50.900;6.234;2022-07-29T09:52:50;5.93;;;2.80;;
15151;SDS011;7676;50.900;6.234;2022-07-29T09:57:54;5.07;;;2.63;;
15151;SDS011;7676;50.900;6.234;2022-07-29T10:03:21;4.87;;;2.90;;
15151;SDS011;7676;50.900;6.234;2022-07-29T10:08:27;5.07;;;3.10;;
15151;SDS011;7676;50.900;6.234;2022-07-29T10:13:29;5.43;;;3.50;;
15151;SDS011;7676;50.900;6.234;2022-07-29T10:18:32;4.40;;;2.80;;
15151;SDS011;7676;50.900;6.234;2022-07-29T10:23:35;6.13;;;3.20;;
15151;SDS011;7676;50.900;6.234;2022-07-29T10:28:48;5.13;;;2.80;;
15151;SDS011;7676;50.900;6.234;2022-07-29T10:34:02;6.23;;;3.70;;
15151;SDS011;7676;50.900;6.234;2022-07-29T10:39:27;4.50;;;4.07;;
15151;SDS011;7676;50.900;6.234;2022-07-29T10:44:51;5.13;;;3.50;;
15151;SDS011;7676;50.900;6.234;2022-07-29T10:55:02;6.53;;;3.43;;
15151;SDS011;7676;50.900;6.234;2022-07-29T11:05:18;4.43;;;2.90;;
15151;SDS011;7676;50.900;6.234;2022-07-29T11:10:22;4.60;;;3.30;;
15151;SDS011;7676;50.900;6.234;2022-07-29T11:16:16;5.10;;;3.40;;
15151;SDS011;7676;50.900;6.234;2022-07-29T11:20:59;6.37;;;3.57;;
15151;SDS011;7676;50.900;6.234;2022-07-29T11:31:14;5.83;;;3.47;;
15151;SDS011;7676;50.900;6.234;2022-07-29T11:36:19;5.23;;;3.53;;
15151;SDS011;7676;50.900;6.234;2022-07-29T11:41:29;4.47;;;3.00;;
15151;SDS011;7676;50.900;6.234;2022-07-29T11:46:48;4.40;;;3.57;;
15151;SDS011;7676;50.900;6.234;2022-07-29T11:51:55;3.80;;;3.07;;
15151;SDS011;7676;50.900;6.234;2022-07-29T11:57:00;4.30;;;3.30;;
15151;SDS011;7676;50.900;6.234;2022-07-29T12:02:02;5.50;;;3.10;;
15151;SDS011;7676;50.900;6.234;2022-07-29T12:07:28;3.80;;;3.10;;
15151;SDS011;7676;50.900;6.234;2022-07-29T12:12:36;6.90;;;3.40;;
15151;SDS011;7676;50.900;6.234;2022-07-29T12:17:40;4.37;;;2.67;;
15151;SDS011;7676;50.900;6.234;2022-07-29T12:22:42;4.53;;;2.70;;
15151;SDS011;7676;50.900;6.234;2022-07-29T12:27:47;4.50;;;2.97;;
15151;SDS011;7676;50.900;6.234;2022-07-29T12:32:50;4.23;;;3.20;;
15151;SDS011;7676;50.900;6.234;2022-07-29T12:37:52;6.20;;;3.63;;
15151;SDS011;7676;50.900;6.234;2022-07-29T12:43:06;6.20;;;3.60;;
15151;SDS011;7676;50.900;6.234;2022-07-29T12:48:11;4.73;;;3.20;;
15151;SDS011;7676;50.900;6.234;2022-07-29T12:53:14;5.30;;;3.50;;
15151;SDS011;7676;50.900;6.234;2022-07-29T13:03:50;5.40;;;3.00;;
15151;SDS011;7676;50.900;6.234;2022-07-29T13:09:11;3.27;;;2.50;;
15151;SDS011;7676;50.900;6.234;2022-07-29T13:19:53;4.70;;;2.63;;
15151;SDS011;7676;50.900;6.234;2022-07-29T13:25:14;3.27;;;2.23;;
15151;SDS011;7676;50.900;6.234;2022-07-29T13:30:26;3.23;;;2.40;;
15151;SDS011;7676;50.900;6.234;2022-07-29T13:35:28;3.23;;;2.20;;
15151;SDS011;7676;50.900;6.234;2022-07-29T13:40:31;4.93;;;2.20;;
15151;SDS011;7676;50.900;6.234;2022-07-29T13:45:35;2.33;;;2.00;;
15151;SDS011;7676;50.900;6.234;2022-07-29T13:50:39;3.27;;;2.10;;
15151;SDS011;7676;50.900;6.234;2022-07-29T13:55:41;3.03;;;2.30;;
15151;SDS011;7676;50.900;6.234;2022-07-29T14:00:44;2.30;;;2.10;;
15151;SDS011;7676;50.900;6.234;2022-07-29T14:05:47;2.47;;;1.80;;
15151;SDS011;7676;50.900;6.234;2022-07-29T14:10:49;2.20;;;1.80;;
15151;SDS011;7676;50.900;6.234;2022-07-29T14:15:52;2.63;;;1.80;;
15151;SDS011;7676;50.900;6.234;2022-07-29T14:20:55;2.37;;;1.70;;
15151;SDS011;7676;50.900;6.234;2022-07-29T14:25:58;2.40;;;1.77;;
15151;SDS011;7676;50.900;6.234;2022-07-29T14:31:02;2.30;;;1.73;;
15151;SDS011;7676;50.900;6.234;2022-07-29T14:36:04;2.43;;;1.50;;
15151;SDS011;7676;50.900;6.234;2022-07-29T14:41:07;3.80;;;1.80;;
15151;SDS011;7676;50.900;6.234;2022-07-29T14:46:09;2.50;;;1.87;;
15151;SDS011;7676;50.900;6.234;2022-07-29T14:51:12;2.00;;;1.77;;
15151;SDS011;7676;50.900;6.234;2022-07-29T14:56:14;2.83;;;1.73;;
15151;SDS011;7676;50.900;6.234;2022-07-29T15:01:37;1.90;;;1.80;;
15151;SDS011;7676;50.900;6.234;2022-07-29T15:06:39;2.77;;;2.07;;
15151;SDS011;7676;50.900;6.234;2022-07-29T15:11:42;2.13;;;1.80;;
15151;SDS011;7676;50.900;6.234;2022-07-29T15:16:44;2.73;;;1.93;;
15151;SDS011;7676;50.900;6.234;2022-07-29T15:21:48;2.63;;;2.37;;
15151;SDS011;7676;50.900;6.234;2022-07-29T15:26:51;2.37;;;2.17;;
15151;SDS011;7676;50.900;6.234;2022-07-29T15:31:53;2.27;;;2.07;;
15151;SDS011;7676;50.900;6.234;2022-07-29T15:36:57;3.17;;;2.10;;
15151;SDS011;7676;50.900;6.234;2022-07-29T15:41:59;2.60;;;2.33;;
15151;SDS011;7676;50.900;6.234;2022-07-29T15:47:02;3.43;;;2.70;;
15151;SDS011;7676;50.900;6.234;2022-07-29T15:52:05;4.60;;;2.60;;
15151;SDS011;7676;50.900;6.234;2022-07-29T15:57:10;3.03;;;2.57;;
15151;SDS011;7676;50.900;6.234;2022-07-29T16:02:12;3.67;;;2.87;;
15151;SDS011;7676;50.900;6.234;2022-07-29T16:07:15;4.00;;;2.40;;
15151;SDS011;7676;50.900;6.234;2022-07-29T16:12:17;3.40;;;2.57;;
15151;SDS011;7676;50.900;6.234;2022-07-29T16:17:20;4.17;;;2.80;;
15151;SDS011;7676;50.900;6.234;2022-07-29T16:22:22;2.97;;;2.17;;
15151;SDS011;7676;50.900;6.234;2022-07-29T16:27:24;3.37;;;2.77;;
15151;SDS011;7676;50.900;6.234;2022-07-29T16:32:38;3.27;;;2.43;;
15151;SDS011;7676;50.900;6.234;2022-07-29T16:37:41;3.27;;;2.40;;
15151;SDS011;7676;50.900;6.234;2022-07-29T16:42:44;3.90;;;2.53;;
15151;SDS011;7676;50.900;6.234;2022-07-29T16:47:48;2.70;;;2.50;;
15151;SDS011;7676;50.900;6.234;2022-07-29T16:52:50;3.07;;;2.83;;
15151;SDS011;7676;50.900;6.234;2022-07-29T16:57:53;3.93;;;2.50;;
15151;SDS011;7676;50.900;6.234;2022-07-29T17:02:55;2.97;;;2.70;;
15151;SDS011;7676;50.900;6.234;2022-07-29T17:07:58;3.00;;;2.60;;
15151;SDS011;7676;50.900;6.234;2022-07-29T17:13:00;3.50;;;2.53;;
15151;SDS011;7676;50.900;6.234;2022-07-29T17:18:02;3.17;;;2.60;;
15151;SDS011;7676;50.900;6.234;2022-07-29T17:23:13;3.13;;;2.83;;
15151;SDS011;7676;50.900;6.234;2022-07-29T17:28:16;3.53;;;2.53;;
15151;SDS011;7676;50.900;6.234;2022-07-29T17:33:18;2.77;;;2.30;;
15151;SDS011;7676;50.900;6.234;2022-07-29T17:38:21;2.20;;;2.00;;
15151;SDS011;7676;50.900;6.234;2022-07-29T17:43:23;2.50;;;2.30;;
15151;SDS011;7676;50.900;6.234;2022-07-29T17:48:26;2.20;;;2.00;;
15151;SDS011;7676;50.900;6.234;2022-07-29T17:53:28;2.33;;;2.03;;
15151;SDS011;7676;50.900;6.234;2022-07-29T17:58:31;3.73;;;2.53;;
15151;SDS011;7676;50.900;6.234;2022-07-29T18:03:35;4.27;;;2.40;;
15151;SDS011;7676;50.900;6.234;2022-07-29T18:08:39;3.13;;;2.50;;
15151;SDS011;7676;50.900;6.234;2022-07-29T18:13:42;2.93;;;2.53;;
15151;SDS011;7676;50.900;6.234;2022-07-29T18:18:44;4.43;;;2.50;;
15151;SDS011;7676;50.900;6.234;2022-07-29T18:23:47;5.03;;;3.00;;
15151;SDS011;7676;50.900;6.234;2022-07-29T18:28:51;4.83;;;2.60;;
15151;SDS011;7676;50.900;6.234;2022-07-29T18:33:54;2.97;;;2.40;;
15151;SDS011;7676;50.900;6.234;2022-07-29T18:39:01;2.77;;;2.57;;
15151;SDS011;7676;50.900;6.234;2022-07-29T18:44:04;3.93;;;2.60;;
15151;SDS011;7676;50.900;6.234;2022-07-29T18:49:06;3.33;;;2.50;;
15151;SDS011;7676;50.900;6.234;2022-07-29T18:54:09;4.13;;;2.43;;
15151;SDS011;7676;50.900;6.234;2022-07-29T18:59:11;3.77;;;2.50;;
15151;SDS011;7676;50.900;6.234;2022-07-29T19:04:17;2.90;;;2.40;;
15151;SDS011;7676;50.900;6.234;2022-07-29T19:09:20;4.17;;;3.03;;
15151;SDS011;7676;50.900;6.234;2022-07-29T19:14:22;2.40;;;2.03;;
15151;SDS011;7676;50.900;6.234;2022-07-29T19:19:25;3.07;;;2.37;;
15151;SDS011;7676;50.900;6.234;2022-07-29T19:24:28;2.40;;;2.20;;
15151;SDS011;7676;50.900;6.234;2022-07-29T19:29:30;3.93;;;2.43;;
15151;SDS011;7676;50.900;6.234;2022-07-29T19:34:33;2.60;;;2.40;;
15151;SDS011;7676;50.900;6.234;2022-07-29T19:39:35;3.87;;;2.37;;
15151;SDS011;7676;50.900;6.234;2022-07-29T19:44:38;3.27;;;2.50;;
15151;SDS011;7676;50.900;6.234;2022-07-29T19:49:40;2.60;;;2.40;;
15151;SDS011;7676;50.900;6.234;2022-07-29T19:54:42;4.10;;;2.43;;
15151;SDS011;7676;50.900;6.234;2022-07-29T19:59:45;4.50;;;2.50;;
15151;SDS011;7676;50.900;6.234;2022-07-29T20:04:47;3.87;;;2.57;;
15151;SDS011;7676;50.900;6.234;2022-07-29T20:09:50;3.30;;;2.40;;
15151;SDS011;7676;50.900;6.234;2022-07-29T20:14:55;2.90;;;2.50;;
15151;SDS011;7676;50.900;6.234;2022-07-29T20:19:58;4.40;;;3.43;;
15151;SDS011;7676;50.900;6.234;2022-07-29T20:25:02;4.93;;;3.40;;
15151;SDS011;7676;50.900;6.234;2022-07-29T20:30:06;4.00;;;2.90;;
15151;SDS011;7676;50.900;6.234;2022-07-29T20:35:09;3.70;;;3.07;;
15151;SDS011;7676;50.900;6.234;2022-07-29T20:40:15;5.17;;;3.43;;
15151;SDS011;7676;50.900;6.234;2022-07-29T20:45:18;4.67;;;3.70;;
15151;SDS011;7676;50.900;6.234;2022-07-29T20:50:20;5.00;;;4.50;;
15151;SDS011;7676;50.900;6.234;2022-07-29T20:55:25;5.40;;;4.47;;
15151;SDS011;7676;50.900;6.234;2022-07-29T21:00:27;3.83;;;3.53;;
15151;SDS011;7676;50.900;6.234;2022-07-29T21:05:30;4.57;;;3.43;;
15151;SDS011;7676;50.900;6.234;2022-07-29T21:10:33;5.43;;;3.53;;
15151;SDS011;7676;50.900;6.234;2022-07-29T21:15:36;4.23;;;3.70;;
15151;SDS011;7676;50.900;6.234;2022-07-29T21:20:38;3.30;;;3.00;;
15151;SDS011;7676;50.900;6.234;2022-07-29T21:25:41;3.00;;;2.77;;
15151;SDS011;7676;50.900;6.234;2022-07-29T21:30:44;4.13;;;3.10;;
15151;SDS011;7676;50.900;6.234;2022-07-29T21:35:47;5.23;;;3.43;;
15151;SDS011;7676;50.900;6.234;2022-07-29T21:41:10;3.80;;;3.37;;
15151;SDS011;7676;50.900;6.234;2022-07-29T21:46:13;5.23;;;3.83;;
15151;SDS011;7676;50.900;6.234;2022-07-29T21:51:18;4.30;;;3.03;;
15151;SDS011;7676;50.900;6.234;2022-07-29T21:56:22;4.87;;;3.77;;
15151;SDS011;7676;50.900;6.234;2022-07-29T22:01:29;4.73;;;3.53;;
15151;SDS011;7676;50.900;6.234;2022-07-29T22:06:40;4.63;;;4.23;;
15151;SDS011;7676;50.900;6.234;2022-07-29T22:11:42;3.93;;;3.30;;
15151;SDS011;7676;50.900;6.234;2022-07-29T22:16:46;3.67;;;3.27;;
15151;SDS011;7676;50.900;6.234;2022-07-29T22:21:49;3.43;;;3.10;;
15151;SDS011;7676;50.900;6.234;2022-07-29T22:26:52;3.57;;;2.90;;
15151;SDS011;7676;50.900;6.234;2022-07-29T22:31:55;2.87;;;2.53;;
15151;SDS011;7676;50.900;6.234;2022-07-29T22:36:57;3.10;;;2.77;;
15151;SDS011;7676;50.900;6.234;2022-07-29T22:42:00;3.47;;;3.00;;
15151;SDS011;7676;50.900;6.234;2022-07-29T22:47:03;4.77;;;2.97;;
15151;SDS011;7676;50.900;6.234;2022-07-29T22:52:06;5.07;;;3.07;;
15151;SDS011;7676;50.900;6.234;2022-07-29T22:57:09;4.00;;;3.20;;
15151;SDS011;7676;50.900;6.234;2022-07-29T23:02:12;3.37;;;3.00;;
15151;SDS011;7676;50.900;6.234;2022-07-29T23:07:14;3.50;;;2.90;;
15151;SDS011;7676;50.900;6.234;2022-07-29T23:12:17;4.30;;;3.00;;
15151;SDS011;7676;50.900;6.234;2022-07-29T23:17:19;3.50;;;2.83;;
15151;SDS011;7676;50.900;6.234;2022-07-29T23:22:22;3.87;;;2.90;;
15151;SDS011;7676;50.900;6.234;2022-07-29T23:27:24;3.50;;;2.60;;
15151;SDS011;7676;50.900;6.234;2022-07-29T23:32:26;5.30;;;3.27;;
15151;SDS011;7676;50.900;6.234;2022-07-29T23:37:29;4.83;;;3.00;;
15151;SDS011;7676;50.900;6.234;2022-07-29T23:42:31;4.40;;;3.47;;
15151;SDS011;7676;50.900;6.234;2022-07-29T23:47:33;4.53;;;3.30;;
15151;SDS011;7676;50.900;6.234;2022-07-29T23:52:36;3.97;;;3.13;;
15151;SDS011;7676;50.900;6.234;2022-07-29T23:57:39;4.43;;;3.20;;
